createdAt,value
2019-03-25T00:01:09.917Z,8.86
2019-03-25T00:03:40.959Z,9.39
2019-03-25T00:06:11.877Z,9.27
2019-03-25T00:08:42.692Z,9.44
2019-03-25T00:11:13.812Z,9.35
2019-03-25T00:13:44.535Z,9.45
2019-03-25T00:16:15.677Z,9.49
2019-03-25T00:18:49.133Z,9.47
2019-03-25T00:21:20.157Z,9.56
2019-03-25T00:23:52.928Z,9.26
2019-03-25T00:26:24.241Z,9.54
2019-03-25T00:28:56.095Z,9.42
2019-03-25T00:31:27.623Z,9.55
2019-03-25T00:33:58.544Z,9.43
2019-03-25T00:36:29.642Z,9.55
2019-03-25T00:39:00.340Z,9.51
2019-03-25T00:41:31.030Z,9.63
2019-03-25T00:44:02.421Z,9.58
2019-03-25T00:46:33.365Z,9.52
2019-03-25T00:49:04.142Z,9.68
2019-03-25T00:51:34.821Z,9.70
2019-03-25T00:54:05.914Z,9.59
2019-03-25T00:56:36.601Z,9.03
2019-03-25T00:59:07.737Z,9.35
2019-03-25T01:01:38.938Z,9.44
2019-03-25T01:04:09.817Z,9.43
2019-03-25T01:06:40.510Z,9.56
2019-03-25T01:09:11.487Z,9.59
2019-03-25T01:11:49.017Z,9.48
2019-03-25T01:14:15.124Z,9.28
2019-03-25T01:16:45.817Z,9.64
2019-03-25T01:19:16.651Z,9.57
2019-03-25T01:21:47.718Z,9.37
2019-03-25T01:24:19.077Z,8.88
2019-03-25T01:26:49.767Z,8.40
2019-03-25T01:29:20.553Z,8.66
2019-03-25T01:31:52.025Z,9.44
2019-03-25T01:34:22.729Z,7.66
2019-03-25T01:36:53.519Z,8.65
2019-03-25T01:39:24.321Z,9.05
2019-03-25T01:41:55.716Z,8.78
2019-03-25T01:44:26.895Z,9.53
2019-03-25T01:46:58.009Z,8.80
2019-03-25T01:49:28.803Z,8.89
2019-03-25T01:52:00.570Z,9.34
2019-03-25T01:54:32.073Z,9.37
2019-03-25T01:57:02.857Z,9.47
2019-03-25T01:59:33.637Z,9.39
2019-03-25T02:02:04.520Z,9.45
2019-03-25T02:04:35.242Z,9.48
2019-03-25T02:07:07.196Z,9.56
2019-03-25T02:09:37.980Z,9.32
2019-03-25T02:12:08.840Z,9.42
2019-03-25T02:14:42.545Z,9.52
2019-03-25T02:17:13.314Z,9.39
2019-03-25T02:19:44.289Z,9.42
2019-03-25T02:22:14.982Z,8.11
2019-03-25T02:24:45.734Z,8.77
2019-03-25T02:27:16.494Z,9.10
2019-03-25T02:29:47.297Z,9.20
2019-03-25T02:32:17.989Z,9.30
2019-03-25T02:34:48.687Z,8.98
2019-03-25T02:37:19.438Z,9.21
2019-03-25T02:39:50.612Z,8.24
2019-03-25T02:42:21.666Z,8.66
2019-03-25T02:44:52.384Z,9.03
2019-03-25T02:47:24.152Z,8.88
2019-03-25T02:49:56.816Z,9.19
2019-03-25T02:52:29.581Z,8.65
2019-03-25T02:55:00.793Z,9.05
2019-03-25T02:57:31.947Z,9.15
2019-03-25T03:00:02.956Z,7.97
2019-03-25T03:02:34.490Z,7.93
2019-03-25T03:05:06.540Z,8.97
2019-03-25T03:07:41.809Z,9.15
2019-03-25T03:10:13.220Z,9.24
2019-03-25T03:12:44.522Z,8.82
2019-03-25T03:15:16.102Z,8.58
2019-03-25T03:17:47.819Z,8.84
2019-03-25T03:20:18.730Z,9.03
2019-03-25T03:22:50.467Z,8.70
2019-03-25T03:25:22.970Z,9.09
2019-03-25T03:27:54.361Z,9.14
2019-03-25T03:30:25.445Z,9.07
2019-03-25T03:32:57.563Z,9.19
2019-03-25T03:35:28.307Z,9.14
2019-03-25T03:37:59.003Z,9.26
2019-03-25T03:40:29.723Z,9.13
2019-03-25T03:43:00.426Z,8.75
2019-03-25T03:45:31.454Z,8.97
2019-03-25T03:48:02.223Z,9.13
2019-03-25T03:50:33.307Z,9.29
2019-03-25T03:53:04.736Z,8.89
2019-03-25T03:55:39.215Z,8.81
2019-03-25T03:58:11.087Z,9.07
2019-03-25T04:00:42.045Z,9.19
2019-03-25T04:03:15.773Z,9.07
2019-03-25T04:05:46.558Z,8.66
2019-03-25T04:08:17.353Z,8.87
2019-03-25T04:10:48.123Z,8.99
2019-03-25T04:13:19.277Z,8.94
2019-03-25T04:15:50.164Z,8.71
2019-03-25T04:18:20.942Z,8.51
2019-03-25T04:20:51.773Z,8.98
2019-03-25T04:23:22.483Z,8.77
2019-03-25T04:25:53.443Z,8.78
2019-03-25T04:28:24.602Z,9.08
2019-03-25T04:30:55.275Z,8.02
2019-03-25T04:33:26.381Z,9.02
2019-03-25T04:35:57.146Z,8.86
2019-03-25T04:38:27.863Z,7.68
2019-03-25T04:40:59.089Z,8.66
2019-03-25T04:43:30.665Z,8.38
2019-03-25T04:46:03.981Z,9.12
2019-03-25T04:48:36.200Z,8.75
2019-03-25T04:51:09.182Z,8.97
2019-03-25T04:53:39.862Z,9.28
2019-03-25T04:56:10.663Z,9.06
2019-03-25T04:58:41.418Z,9.38
2019-03-25T05:01:15.095Z,8.79
2019-03-25T05:03:46.232Z,9.03
2019-03-25T05:06:17.251Z,9.20
2019-03-25T05:08:48.001Z,8.50
2019-03-25T05:11:30.101Z,8.47
2019-03-25T05:13:51.123Z,9.24
2019-03-25T05:16:24.088Z,8.84
2019-03-25T05:18:54.889Z,9.28
2019-03-25T05:21:25.553Z,9.35
2019-03-25T05:23:56.315Z,9.01
2019-03-25T05:26:27.076Z,8.81
2019-03-25T05:28:58.723Z,9.28
2019-03-25T05:31:30.260Z,8.51
2019-03-25T05:34:01.110Z,9.15
2019-03-25T05:36:31.798Z,8.57
2019-03-25T05:39:02.622Z,8.83
2019-03-25T05:41:33.755Z,9.08
2019-03-25T05:44:04.666Z,9.04
2019-03-25T05:46:35.773Z,9.05
2019-03-25T05:49:06.614Z,8.86
2019-03-25T05:51:37.407Z,8.39
2019-03-25T05:54:08.190Z,8.57
2019-03-25T05:56:40.045Z,8.77
2019-03-25T05:59:10.986Z,8.23
2019-03-25T06:01:44.092Z,8.18
2019-03-25T06:04:14.295Z,8.57
2019-03-25T06:06:45.057Z,8.37
2019-03-25T06:09:15.983Z,8.54
2019-03-25T06:11:47.149Z,8.70
2019-03-25T06:14:18.049Z,8.33
2019-03-25T06:16:48.755Z,8.53
2019-03-25T06:19:19.528Z,8.58
2019-03-25T06:21:50.263Z,8.31
2019-03-25T06:24:21.098Z,8.57
2019-03-25T06:26:52.018Z,8.13
2019-03-25T06:29:22.887Z,8.39
2019-03-25T06:31:53.670Z,7.58
2019-03-25T06:34:24.998Z,7.87
2019-03-25T06:36:55.854Z,7.41
2019-03-25T06:39:27.170Z,7.61
2019-03-25T06:41:57.930Z,7.77
2019-03-25T06:44:29.701Z,7.75
2019-03-25T06:47:00.408Z,7.61
2019-03-25T06:49:31.174Z,7.57
2019-03-25T06:52:01.928Z,7.61
2019-03-25T06:54:32.712Z,7.63
2019-03-25T06:57:03.872Z,7.40
2019-03-25T06:59:34.607Z,7.52
2019-03-25T07:02:05.486Z,7.31
2019-03-25T07:04:36.283Z,7.49
2019-03-25T07:07:07.029Z,7.44
2019-03-25T07:09:38.264Z,7.61
2019-03-25T07:12:09.270Z,7.05
2019-03-25T07:14:40.912Z,7.44
2019-03-25T07:17:11.734Z,7.11
2019-03-25T07:19:42.631Z,7.52
2019-03-25T07:22:13.343Z,7.37
2019-03-25T07:24:44.073Z,7.58
2019-03-25T07:27:15.046Z,7.61
2019-03-25T07:29:45.858Z,8.01
2019-03-25T07:32:16.831Z,7.97
2019-03-25T07:34:47.777Z,7.76
2019-03-25T07:37:19.286Z,7.78
2019-03-25T07:39:50.417Z,7.65
2019-03-25T07:42:21.436Z,8.07
2019-03-25T07:44:52.505Z,7.99
2019-03-25T07:47:23.367Z,8.17
2019-03-25T07:49:54.088Z,7.65
2019-03-25T07:52:24.928Z,7.88
2019-03-25T07:54:55.974Z,8.12
2019-03-25T07:57:26.689Z,7.68
2019-03-25T07:59:58.166Z,8.16
2019-03-25T08:02:28.891Z,8.12
2019-03-25T08:04:59.930Z,8.11
2019-03-25T08:07:30.723Z,7.65
2019-03-25T08:10:01.809Z,7.81
2019-03-25T08:12:32.591Z,7.93
2019-03-25T08:15:03.526Z,7.92
2019-03-25T08:17:34.932Z,7.24
2019-03-25T08:20:06.351Z,7.37
2019-03-25T08:22:37.146Z,7.90
2019-03-25T08:25:09.008Z,7.86
2019-03-25T08:27:39.944Z,7.94
2019-03-25T08:30:11.878Z,8.30
2019-03-25T08:32:42.708Z,8.54
2019-03-25T08:35:14.105Z,8.38
2019-03-25T08:37:45.206Z,8.23
2019-03-25T08:40:16.948Z,8.01
2019-03-25T08:42:47.750Z,7.98
2019-03-25T08:45:18.848Z,8.04
2019-03-25T08:47:49.668Z,7.71
2019-03-25T08:50:20.624Z,9.35
2019-03-25T08:52:51.681Z,10.31
2019-03-25T08:55:22.454Z,11.31
2019-03-25T08:57:53.273Z,9.76
2019-03-25T09:00:24.389Z,9.45
2019-03-25T09:02:55.942Z,9.70
2019-03-25T09:05:26.735Z,9.54
2019-03-25T09:07:58.077Z,10.05
2019-03-25T09:10:28.964Z,9.16
2019-03-25T09:13:00.482Z,8.80
2019-03-25T09:15:31.514Z,8.89
2019-03-25T09:18:02.262Z,8.60
2019-03-25T09:20:33.016Z,8.82
2019-03-25T09:23:03.888Z,8.35
2019-03-25T09:25:34.686Z,8.37
2019-03-25T09:28:05.815Z,8.39
2019-03-25T09:31:21.312Z,8.57
2019-03-25T09:33:52.234Z,8.73
2019-03-25T09:36:24.137Z,8.69
2019-03-25T09:38:54.845Z,8.90
2019-03-25T09:41:25.559Z,8.66
2019-03-25T09:43:56.254Z,8.54
2019-03-25T09:46:27.120Z,8.47
2019-03-25T09:48:57.852Z,8.72
2019-03-25T09:51:28.569Z,9.48
2019-03-25T09:53:59.636Z,8.84
2019-03-25T09:56:30.750Z,8.98
2019-03-25T09:59:02.222Z,8.86
2019-03-25T10:01:33.086Z,8.76
2019-03-25T10:04:04.065Z,8.58
2019-03-25T10:06:35.924Z,8.13
2019-03-25T10:09:10.793Z,8.04
2019-03-25T10:11:41.577Z,8.25
2019-03-25T10:14:12.416Z,8.77
2019-03-25T10:16:43.173Z,8.63
2019-03-25T10:19:14.299Z,8.88
2019-03-25T10:21:45.037Z,9.18
2019-03-25T10:24:16.011Z,9.64
2019-03-25T10:26:47.036Z,9.31
2019-03-25T10:29:18.305Z,8.72
2019-03-25T10:31:49.144Z,8.93
2019-03-25T10:34:20.160Z,9.40
2019-03-25T10:36:51.399Z,9.92
2019-03-25T10:39:22.443Z,9.83
2019-03-25T10:41:53.134Z,9.66
2019-03-25T10:44:23.851Z,9.84
2019-03-25T10:46:54.725Z,9.42
2019-03-25T10:49:25.496Z,9.89
2019-03-25T10:51:57.122Z,9.19
2019-03-25T10:54:27.905Z,9.21
2019-03-25T10:56:58.651Z,9.45
2019-03-25T10:59:29.446Z,9.94
2019-03-25T11:02:00.296Z,10.00
2019-03-25T11:04:31.833Z,9.63
2019-03-25T11:07:02.640Z,9.61
2019-03-25T11:09:34.322Z,9.80
2019-03-25T11:12:05.262Z,9.98
2019-03-25T11:14:35.996Z,10.50
2019-03-25T11:17:06.696Z,10.07
2019-03-25T11:19:38.008Z,10.52
2019-03-25T11:22:08.856Z,10.84
2019-03-25T11:24:39.799Z,10.78
2019-03-25T11:27:10.829Z,10.85
2019-03-25T11:29:41.583Z,10.29
2019-03-25T11:32:12.501Z,10.46
2019-03-25T11:34:43.544Z,9.63
2019-03-25T11:37:15.138Z,9.90
2019-03-25T11:39:45.931Z,9.97
2019-03-25T11:42:16.614Z,9.91
2019-03-25T11:44:47.792Z,10.18
2019-03-25T11:47:18.625Z,9.66
2019-03-25T11:49:49.393Z,9.73
2019-03-25T11:52:20.145Z,9.74
2019-03-25T11:54:51.246Z,9.03
2019-03-25T11:57:22.069Z,9.50
2019-03-25T11:59:52.940Z,10.21
2019-03-25T12:02:24.183Z,10.78
2019-03-25T12:04:55.141Z,10.81
2019-03-25T12:07:26.185Z,9.83
2019-03-25T12:09:57.080Z,9.38
2019-03-25T12:12:28.315Z,9.48
2019-03-25T12:15:01.511Z,9.73
2019-03-25T12:17:32.041Z,9.41
2019-03-25T12:20:03.204Z,10.13
2019-03-25T12:22:34.036Z,9.89
2019-03-25T12:25:05.288Z,10.49
2019-03-25T12:27:36.462Z,10.40
2019-03-25T12:30:08.422Z,11.04
2019-03-25T12:32:39.385Z,10.63
2019-03-25T12:35:10.679Z,10.78
2019-03-25T12:37:41.465Z,10.68
2019-03-25T12:40:13.172Z,10.92
2019-03-25T12:42:43.883Z,10.47
2019-03-25T12:45:15.519Z,9.59
2019-03-25T12:47:46.261Z,10.08
2019-03-25T12:50:17.367Z,10.88
2019-03-25T12:52:48.392Z,10.76
2019-03-25T12:55:19.134Z,10.38
2019-03-25T12:57:49.922Z,9.96
2019-03-25T13:00:39.967Z,10.14
2019-03-25T13:03:11.196Z,9.94
2019-03-25T13:05:42.886Z,10.03
2019-03-25T13:08:13.774Z,10.01
2019-03-25T13:10:44.614Z,10.40
2019-03-25T13:13:15.566Z,10.13
2019-03-25T13:15:46.301Z,11.04
2019-03-25T13:18:17.113Z,11.05
2019-03-25T13:20:47.931Z,11.58
2019-03-25T13:23:19.095Z,11.67
2019-03-25T13:25:49.796Z,11.83
2019-03-25T13:28:20.548Z,11.24
2019-03-25T13:30:51.348Z,10.78
2019-03-25T13:33:22.137Z,10.96
2019-03-25T13:35:52.881Z,10.49
2019-03-25T13:38:23.671Z,10.16
2019-03-25T13:40:55.425Z,9.58
2019-03-25T13:43:26.137Z,8.69
2019-03-25T13:46:05.046Z,8.33
2019-03-25T13:48:29.730Z,8.02
2019-03-25T13:51:00.424Z,7.92
2019-03-25T13:53:31.192Z,7.93
2019-03-25T13:56:02.200Z,7.95
2019-03-25T13:58:32.913Z,7.95
2019-03-25T14:01:03.616Z,7.23
2019-03-25T14:03:34.389Z,7.31
2019-03-25T14:06:05.246Z,7.19
2019-03-25T14:08:36.438Z,7.33
2019-03-25T14:11:07.459Z,7.40
2019-03-25T14:13:48.694Z,7.38
2019-03-25T14:16:11.463Z,8.15
2019-03-25T14:18:42.257Z,8.30
2019-03-25T14:21:13.016Z,8.40
2019-03-25T14:23:43.778Z,8.55
2019-03-25T14:26:15.082Z,8.61
2019-03-25T14:28:46.559Z,8.88
2019-03-25T14:31:17.510Z,8.89
2019-03-25T14:33:48.290Z,8.32
2019-03-25T14:36:19.021Z,8.43
2019-03-25T14:38:51.633Z,8.99
2019-03-25T14:41:22.492Z,9.54
2019-03-25T14:43:53.161Z,9.28
2019-03-25T14:46:24.098Z,9.11
2019-03-25T14:48:55.002Z,9.52
2019-03-25T14:51:25.950Z,9.13
2019-03-25T14:53:56.669Z,8.64
2019-03-25T14:56:27.483Z,9.33
2019-03-25T14:58:58.207Z,9.29
2019-03-25T15:01:28.939Z,9.57
2019-03-25T15:03:59.695Z,9.26
2019-03-25T15:06:30.611Z,9.62
2019-03-25T15:09:01.458Z,8.79
2019-03-25T15:11:32.222Z,9.47
2019-03-25T15:14:02.982Z,9.30
2019-03-25T15:16:33.989Z,9.09
2019-03-25T15:19:04.885Z,9.31
2019-03-25T15:21:35.708Z,9.22
2019-03-25T15:24:06.590Z,8.72
2019-03-25T15:26:37.648Z,8.50
2019-03-25T15:29:08.364Z,8.66
2019-03-25T15:31:39.898Z,8.87
2019-03-25T15:34:11.006Z,8.77
2019-03-25T15:36:41.943Z,8.37
2019-03-25T15:39:13.098Z,8.70
2019-03-25T15:41:44.004Z,9.25
2019-03-25T15:44:14.871Z,8.92
2019-03-25T15:46:55.407Z,8.44
2019-03-25T15:49:18.414Z,8.74
2019-03-25T15:51:49.294Z,8.84
2019-03-25T15:54:20.047Z,8.65
2019-03-25T15:56:50.707Z,8.80
2019-03-25T15:59:23.021Z,9.54
2019-03-25T16:01:53.711Z,9.41
2019-03-25T16:04:24.812Z,9.40
2019-03-25T16:06:55.514Z,9.30
2019-03-25T16:09:26.476Z,9.00
2019-03-25T16:11:57.512Z,9.08
2019-03-25T16:14:28.209Z,9.09
2019-03-25T16:16:59.102Z,8.89
2019-03-25T16:19:29.875Z,9.35
2019-03-25T16:22:00.678Z,9.44
2019-03-25T16:24:31.704Z,9.31
2019-03-25T16:27:02.452Z,9.62
2019-03-25T16:29:33.660Z,9.37
2019-03-25T16:32:04.700Z,9.43
2019-03-25T16:34:37.021Z,8.91
2019-03-25T16:37:08.148Z,8.93
2019-03-25T16:39:38.913Z,8.64
2019-03-25T16:42:09.677Z,9.17
2019-03-25T16:44:40.377Z,9.45
2019-03-25T16:47:11.646Z,9.15
2019-03-25T16:49:42.392Z,9.40
2019-03-25T16:52:13.109Z,9.50
2019-03-25T16:54:43.837Z,9.47
2019-03-25T16:57:15.140Z,9.58
2019-03-25T16:59:46.266Z,9.67
2019-03-25T17:02:17.527Z,9.39
2019-03-25T17:04:48.777Z,9.44
2019-03-25T17:07:19.688Z,9.41
2019-03-25T17:09:50.613Z,9.76
2019-03-25T17:12:21.466Z,9.26
2019-03-25T17:14:52.278Z,9.53
2019-03-25T17:17:23.123Z,8.96
2019-03-25T17:19:54.294Z,9.10
2019-03-25T17:22:25.398Z,9.16
2019-03-25T17:24:56.091Z,9.20
2019-03-25T17:27:27.342Z,9.11
2019-03-25T17:29:58.557Z,8.91
2019-03-25T17:32:29.275Z,8.84
2019-03-25T17:35:00.881Z,9.30
2019-03-25T17:37:31.605Z,9.28
2019-03-25T17:40:02.444Z,9.42
2019-03-25T17:42:33.305Z,9.38
2019-03-25T17:45:04.725Z,9.16
2019-03-25T17:47:35.449Z,9.20
2019-03-25T17:50:07.677Z,9.31
2019-03-25T17:52:38.758Z,9.45
2019-03-25T17:55:10.416Z,9.25
2019-03-25T17:57:41.152Z,9.13
2019-03-25T18:00:13.222Z,8.91
2019-03-25T18:02:44.147Z,8.77
2019-03-25T18:05:15.039Z,8.56
2019-03-25T18:07:46.346Z,8.93
2019-03-25T18:10:17.312Z,8.44
2019-03-25T18:12:48.243Z,8.67
2019-03-25T18:15:19.618Z,8.68
2019-03-25T18:17:52.137Z,8.98
2019-03-25T18:20:22.925Z,8.53
2019-03-25T18:22:53.756Z,8.53
2019-03-25T18:25:24.495Z,8.53
2019-03-25T18:27:55.266Z,8.36
2019-03-25T18:30:33.917Z,8.22
2019-03-25T18:33:04.733Z,8.10
2019-03-25T18:35:35.507Z,8.10
2019-03-25T18:38:06.341Z,8.28
2019-03-25T18:40:37.417Z,8.36
2019-03-25T18:43:08.612Z,8.27
2019-03-25T18:45:39.862Z,8.39
2019-03-25T18:48:10.762Z,8.26
2019-03-25T18:50:41.817Z,8.37
2019-03-25T18:53:14.260Z,8.44
2019-03-25T18:55:45.374Z,8.47
2019-03-25T18:58:16.084Z,8.26
2019-03-25T19:00:46.872Z,8.37
2019-03-25T19:03:18.602Z,8.17
2019-03-25T19:05:49.406Z,8.32
2019-03-25T19:08:20.885Z,8.47
2019-03-25T19:10:52.385Z,8.09
2019-03-25T19:13:25.350Z,7.95
2019-03-25T19:15:56.063Z,7.93
2019-03-25T19:18:31.328Z,8.05
2019-03-25T19:21:02.825Z,8.07
2019-03-25T19:23:36.126Z,8.18
2019-03-25T19:26:08.160Z,7.86
2019-03-25T19:28:43.973Z,7.67
2019-03-25T19:31:14.964Z,7.59
2019-03-25T19:33:48.476Z,7.83
2019-03-25T19:36:20.970Z,7.82
2019-03-25T19:38:58.151Z,7.81
2019-03-25T19:41:32.794Z,7.66
2019-03-25T19:44:09.568Z,7.65
2019-03-25T19:46:41.059Z,7.70
2019-03-25T19:49:18.273Z,7.64
2019-03-25T19:51:48.962Z,7.65
2019-03-25T19:54:19.907Z,7.69
2019-03-25T19:56:50.928Z,7.56
2019-03-25T19:59:21.907Z,7.97
2019-03-25T20:01:52.965Z,7.81
2019-03-25T20:04:24.195Z,7.52
2019-03-25T20:06:58.870Z,7.60
2019-03-25T20:10:01.988Z,7.50
2019-03-25T20:12:38.543Z,7.56
2019-03-25T20:15:10.211Z,7.39
2019-03-25T20:17:42.003Z,7.65
2019-03-25T20:20:13.495Z,7.38
2019-03-25T20:22:44.662Z,7.45
2019-03-25T20:25:15.515Z,7.45
2019-03-25T20:27:46.583Z,7.27
2019-03-25T20:30:18.615Z,7.23
2019-03-25T20:32:49.637Z,7.03
2019-03-25T20:35:21.340Z,7.27
2019-03-25T20:37:55.641Z,7.17
2019-03-25T20:40:30.055Z,7.26
2019-03-25T20:43:05.253Z,7.51
2019-03-25T20:45:36.461Z,7.49
2019-03-25T20:48:07.605Z,7.58
2019-03-25T20:50:38.484Z,7.70
2019-03-25T20:53:12.275Z,7.93
2019-03-25T20:55:43.068Z,7.45
2019-03-25T20:58:14.171Z,7.81
2019-03-25T21:00:57.207Z,8.14
2019-03-25T21:03:33.325Z,7.46
2019-03-25T21:06:04.493Z,7.44
2019-03-25T21:08:36.483Z,7.36
2019-03-25T21:11:07.512Z,7.77
2019-03-25T21:13:38.971Z,7.56
2019-03-25T21:16:19.355Z,7.82
2019-03-25T21:18:52.271Z,7.59
2019-03-25T21:21:23.044Z,7.43
2019-03-25T21:24:02.424Z,7.31
2019-03-25T21:26:37.940Z,7.32
2019-03-25T21:32:05.346Z,7.56
2019-03-25T21:34:58.019Z,7.66
2019-03-25T21:37:38.898Z,7.12
2019-03-25T21:40:10.421Z,7.01
2019-03-25T21:42:43.336Z,7.40
2019-03-25T21:45:15.606Z,7.17
2019-03-25T21:47:46.589Z,7.11
2019-03-25T21:50:18.924Z,7.32
2019-03-25T21:52:54.179Z,7.28
2019-03-25T21:55:44.140Z,7.47
2019-03-25T21:58:16.486Z,7.26
2019-03-25T22:00:51.352Z,6.97
2019-03-25T22:03:22.543Z,6.81
2019-03-25T22:05:53.847Z,6.95
2019-03-25T22:08:24.804Z,6.74
2019-03-25T22:10:55.498Z,6.78
2019-03-25T22:13:26.247Z,6.58
2019-03-25T22:15:57.106Z,6.52
2019-03-25T22:18:30.588Z,6.69
2019-03-25T22:21:00.433Z,6.54
2019-03-25T22:23:32.047Z,6.67
2019-03-25T22:26:02.789Z,6.90
2019-03-25T22:28:33.883Z,7.36
2019-03-25T22:31:04.573Z,7.47
2019-03-25T22:33:35.289Z,7.43
2019-03-25T22:36:07.081Z,7.04
2019-03-25T22:38:37.933Z,7.40
2019-03-25T22:41:08.954Z,7.43
2019-03-25T22:43:39.695Z,7.34
2019-03-25T22:46:11.080Z,7.36
2019-03-25T22:48:42.841Z,7.33
2019-03-25T22:51:13.639Z,7.29
2019-03-25T22:53:44.508Z,7.31
2019-03-25T22:56:15.359Z,7.60
2019-03-25T22:58:46.142Z,7.58
2019-03-25T23:01:17.517Z,7.58
2019-03-25T23:03:48.302Z,7.35
2019-03-25T23:06:19.387Z,7.16
2019-03-25T23:08:50.075Z,7.13
2019-03-25T23:11:21.033Z,6.80
2019-03-25T23:13:51.888Z,6.95
2019-03-25T23:16:22.756Z,6.78
2019-03-25T23:18:53.778Z,6.72
2019-03-25T23:21:24.757Z,6.84
2019-03-25T23:23:55.533Z,6.71
2019-03-25T23:26:26.754Z,6.71
2019-03-25T23:28:57.477Z,6.87
2019-03-25T23:31:28.340Z,6.91
2019-03-25T23:33:59.418Z,6.59
2019-03-25T23:36:30.405Z,6.93
2019-03-25T23:39:01.602Z,6.96
2019-03-25T23:41:33.452Z,7.07
2019-03-25T23:44:04.542Z,6.96
2019-03-25T23:46:40.117Z,7.22
2019-03-25T23:49:10.930Z,7.21
2019-03-25T23:51:42.390Z,7.05
2019-03-25T23:54:14.389Z,7.10
2019-03-25T23:56:45.796Z,6.98
2019-03-25T23:59:17.567Z,7.15
